Time;durP1;ratioP1;P1;durP2;ratioP2;P2;SDS_P1;SDS_P2;PMS_P1;PMS_P2;Temp;Humidity;BMP_temperature;BMP_pressure;BME280_temperature;BME280_humidity;BME280_pressure;Samples;Min_cycle;Max_cycle;Signal;HPM_P1;HPM_P2
2023/05/26 00:07:23;;;;;;;;;;;12.50;99.90;;;;;;20890406;28;19951;-75
2023/05/26 00:17:24;;;;;;;;;;;12.30;99.90;;;;;;20890383;28;19913;-75
2023/05/26 00:27:25;;;;;;;;;;;12.20;99.90;;;;;;20899110;28;19909;-75
2023/05/26 00:37:26;;;;;;;;;;;12.00;99.90;;;;;;20883290;28;19923;-75
2023/05/26 00:47:26;;;;;;;;;;;12.10;99.90;;;;;;20898626;28;19913;-75
2023/05/26 00:57:29;;;;;;;;;;;11.80;99.90;;;;;;20893369;28;19912;-74
2023/05/26 01:07:30;;;;;;;;;;;11.70;99.90;;;;;;20873871;28;20276;-75
2023/05/26 01:17:32;;;;;;;;;;;11.80;99.90;;;;;;20877093;28;20009;-75
2023/05/26 01:27:44;;;;;;;;;;;11.50;99.90;;;;;;20868917;28;19909;-74
2023/05/26 01:37:46;;;;;;;;;;;11.40;99.90;;;;;;20869676;28;20003;-75
2023/05/26 01:47:49;;;;;;;;;;;11.40;99.90;;;;;;20892071;28;19921;-75
2023/05/26 01:57:50;;;;;;;;;;;11.20;99.90;;;;;;20883282;28;19917;-75
2023/05/26 02:07:51;;;;;;;;;;;11.10;99.90;;;;;;20870491;28;19982;-75
2023/05/26 02:17:54;;;;;;;;;;;11.00;99.90;;;;;;20874879;28;19917;-74
2023/05/26 02:27:55;;;;;;;;;;;10.90;99.90;;;;;;20898584;28;19912;-74
2023/05/26 02:37:56;;;;;;;;;;;10.60;99.90;;;;;;20891753;28;19936;-74
2023/05/26 02:47:56;;;;;;;;;;;10.60;99.90;;;;;;20893207;28;19920;-75
2023/05/26 02:57:57;;;;;;;;;;;10.50;99.90;;;;;;20916811;28;19923;-74
2023/05/26 03:07:57;;;;;;;;;;;10.40;99.90;;;;;;20905072;28;19979;-75
2023/05/26 03:17:58;;;;;;;;;;;10.40;99.90;;;;;;20900708;28;20354;-75
2023/05/26 03:27:59;;;;;;;;;;;10.30;99.90;;;;;;20877700;28;20358;-75
2023/05/26 03:38:01;;;;;;;;;;;10.30;99.90;;;;;;20875571;28;20388;-75
2023/05/26 03:48:02;;;;;;;;;;;10.10;99.90;;;;;;20873009;28;19982;-74
2023/05/26 03:58:03;;;;;;;;;;;10.10;99.90;;;;;;20873161;28;19920;-75
2023/05/26 04:08:04;;;;;;;;;;;10.10;99.90;;;;;;20886430;28;20327;-75
2023/05/26 04:18:05;;;;;;;;;;;10.00;99.90;;;;;;20878123;28;19912;-74
2023/05/26 04:28:07;;;;;;;;;;;10.10;99.90;;;;;;20910248;28;19983;-75
2023/05/26 04:38:15;;;;;;;;;;;10.30;99.90;;;;;;20901296;28;19920;-73
2023/05/26 04:48:16;;;;;;;;;;;10.30;99.90;;;;;;20936084;28;20340;-75
2023/05/26 04:58:17;;;;;;;;;;;10.70;99.90;;;;;;20907060;28;19917;-73
2023/05/26 05:08:18;;;;;;;;;;;11.10;99.90;;;;;;20878940;28;19913;-76
2023/05/26 05:18:19;;;;;;;;;;;11.70;99.90;;;;;;20865618;28;20391;-73
2023/05/26 05:28:21;;;;;;;;;;;12.30;99.90;;;;;;20890008;28;20416;-74
2023/05/26 05:38:42;;;;;;;;;;;12.60;99.90;;;;;;20901808;28;19913;-74
2023/05/26 05:48:42;;;;;;;;;;;12.90;99.90;;;;;;20918023;28;19918;-74
2023/05/26 05:58:49;;;;;;;;;;;12.90;99.90;;;;;;20895904;28;19919;-73
2023/05/26 06:08:50;;;;;;;;;;;13.30;99.90;;;;;;20892235;28;20240;-75
2023/05/26 06:18:51;;;;;;;;;;;14.00;99.90;;;;;;20894909;28;19912;-74
2023/05/26 06:28:52;;;;;;;;;;;13.90;99.90;;;;;;20885926;28;19909;-75
2023/05/26 06:38:53;;;;;;;;;;;14.60;99.90;;;;;;20890947;28;20302;-75
2023/05/26 06:48:54;;;;;;;;;;;14.90;99.90;;;;;;20896359;28;19912;-74
2023/05/26 06:59:06;;;;;;;;;;;15.40;99.90;;;;;;20882852;28;19916;-74
2023/05/26 07:09:07;;;;;;;;;;;15.50;99.90;;;;;;20897631;28;20417;-75
2023/05/26 07:19:11;;;;;;;;;;;15.50;99.90;;;;;;20913992;28;20437;-75
2023/05/26 07:29:12;;;;;;;;;;;16.70;99.90;;;;;;20891424;28;20003;-75
2023/05/26 07:39:13;;;;;;;;;;;17.30;99.90;;;;;;20900088;28;19916;-74
2023/05/26 07:49:14;;;;;;;;;;;17.40;99.90;;;;;;20894782;28;19912;-75
2023/05/26 07:59:15;;;;;;;;;;;17.60;99.90;;;;;;20892714;28;20011;-75
2023/05/26 08:09:16;;;;;;;;;;;18.90;99.90;;;;;;20901758;28;20325;-75
2023/05/26 08:19:16;;;;;;;;;;;20.10;99.90;;;;;;20889152;28;19916;-75
2023/05/26 08:29:17;;;;;;;;;;;20.30;99.90;;;;;;20889364;28;20363;-75
2023/05/26 08:39:17;;;;;;;;;;;21.00;99.90;;;;;;20890824;28;19939;-75
2023/05/26 08:49:18;;;;;;;;;;;21.90;99.90;;;;;;20891378;28;19948;-74
2023/05/26 08:59:19;;;;;;;;;;;21.80;99.90;;;;;;20904918;28;19913;-75
2023/05/26 09:09:20;;;;;;;;;;;22.50;99.90;;;;;;20905677;28;19924;-75
2023/05/26 09:19:20;;;;;;;;;;;22.90;99.90;;;;;;20906344;28;19912;-75
2023/05/26 09:29:21;;;;;;;;;;;24.00;99.90;;;;;;20905449;28;19958;-75
2023/05/26 09:39:30;;;;;;;;;;;24.20;99.90;;;;;;20874143;28;19913;-76
2023/05/26 09:49:31;;;;;;;;;;;24.40;99.90;;;;;;20884182;28;20437;-75
2023/05/26 09:59:36;;;;;;;;;;;25.10;99.90;;;;;;20875548;28;19913;-80
2023/05/26 10:09:37;;;;;;;;;;;26.00;99.90;;;;;;20892312;28;19958;-79
2023/05/26 10:19:38;;;;;;;;;;;26.30;99.90;;;;;;20916025;28;19919;-79
2023/05/26 10:29:48;;;;;;;;;;;26.10;99.90;;;;;;20903258;28;19949;-80
2023/05/26 10:39:49;;;;;;;;;;;26.30;99.90;;;;;;20939423;28;19916;-79
2023/05/26 10:49:56;;;;;;;;;;;26.60;99.90;;;;;;20907368;28;20359;-79
2023/05/26 10:59:57;;;;;;;;;;;26.80;99.90;;;;;;20903698;28;20001;-78
2023/05/26 11:10:01;;;;;;;;;;;27.00;99.60;;;;;;20906345;28;19944;-78
2023/05/26 11:20:02;;;;;;;;;;;27.20;98.60;;;;;;20902896;28;19912;-78
2023/05/26 11:30:03;;;;;;;;;;;27.20;97.30;;;;;;20912007;28;20295;-76
2023/05/26 11:40:04;;;;;;;;;;;27.70;97.20;;;;;;20889779;28;19913;-78
2023/05/26 11:50:08;;;;;;;;;;;28.10;97.00;;;;;;20871599;28;19959;-78
2023/05/26 12:00:13;;;;;;;;;;;27.40;98.20;;;;;;20886269;28;20000;-79
2023/05/26 12:10:14;;;;;;;;;;;28.30;96.00;;;;;;20877357;28;20343;-78
2023/05/26 12:20:16;;;;;;;;;;;28.30;96.40;;;;;;20871974;28;19916;-76
2023/05/26 12:30:21;;;;;;;;;;;28.40;95.70;;;;;;20887927;28;20714;-75
2023/05/26 12:40:22;;;;;;;;;;;27.80;94.80;;;;;;20887478;28;19912;-74
2023/05/26 12:50:23;;;;;;;;;;;28.40;95.30;;;;;;20886712;28;20287;-75
2023/05/26 13:00:23;;;;;;;;;;;29.00;93.90;;;;;;20888216;28;20400;-74
2023/05/26 13:10:24;;;;;;;;;;;28.70;94.10;;;;;;20885167;28;19913;-75
2023/05/26 13:20:25;;;;;;;;;;;29.00;93.80;;;;;;20878054;28;19956;-74
2023/05/26 13:30:27;;;;;;;;;;;28.60;93.20;;;;;;20893142;28;19971;-75
2023/05/26 13:40:27;;;;;;;;;;;28.30;95.20;;;;;;20881742;28;19917;-75
2023/05/26 13:50:28;;;;;;;;;;;28.90;94.40;;;;;;20919753;28;19909;-76
2023/05/26 14:00:30;;;;;;;;;;;29.00;95.30;;;;;;20897691;28;19913;-75
2023/05/26 14:10:32;;;;;;;;;;;28.80;94.70;;;;;;20931461;28;19917;-76
2023/05/26 14:20:33;;;;;;;;;;;28.80;93.80;;;;;;20910841;28;19919;-75
2023/05/26 14:30:33;;;;;;;;;;;29.00;92.50;;;;;;20910175;28;20450;-75
2023/05/26 14:40:36;;;;;;;;;;;29.10;93.90;;;;;;20901970;28;19951;-75
2023/05/26 14:50:37;;;;;;;;;;;28.90;93.50;;;;;;20915681;28;19908;-75
2023/05/26 15:00:37;;;;;;;;;;;29.00;93.90;;;;;;20904616;28;19942;-75
2023/05/26 15:10:38;;;;;;;;;;;29.10;91.90;;;;;;20897496;28;20011;-75
2023/05/26 15:20:39;;;;;;;;;;;28.90;91.50;;;;;;20916862;28;19948;-74
2023/05/26 15:30:40;;;;;;;;;;;28.30;92.00;;;;;;20890445;28;19909;-75
2023/05/26 15:40:43;;;;;;;;;;;28.20;92.10;;;;;;20919831;28;20338;-74
2023/05/26 15:50:44;;;;;;;;;;;27.40;95.00;;;;;;20902277;28;19909;-75
2023/05/26 16:00:44;;;;;;;;;;;27.60;94.30;;;;;;20894377;28;19966;-74
2023/05/26 16:10:45;;;;;;;;;;;27.00;94.80;;;;;;20907776;28;20382;-74
2023/05/26 16:20:46;;;;;;;;;;;26.70;97.00;;;;;;20901136;28;19973;-76
2023/05/26 16:30:46;;;;;;;;;;;26.10;96.70;;;;;;20900586;28;19908;-75
2023/05/26 16:40:47;;;;;;;;;;;25.80;98.40;;;;;;20951798;28;19959;-74
2023/05/26 16:50:48;;;;;;;;;;;25.40;99.50;;;;;;20897305;28;19995;-74
2023/05/26 17:00:48;;;;;;;;;;;24.90;99.90;;;;;;20907395;28;19919;-74
2023/05/26 17:10:50;;;;;;;;;;;24.70;99.90;;;;;;20886815;28;19913;-75
2023/05/26 17:20:51;;;;;;;;;;;24.10;99.90;;;;;;20900959;28;20007;-75
2023/05/26 17:30:51;;;;;;;;;;;23.70;99.90;;;;;;20882825;28;20470;-75
2023/05/26 17:40:52;;;;;;;;;;;23.50;99.90;;;;;;20894756;28;19912;-74
2023/05/26 17:50:53;;;;;;;;;;;23.40;99.90;;;;;;20887115;28;19940;-74
2023/05/26 18:00:53;;;;;;;;;;;23.30;99.90;;;;;;20896378;28;19913;-76
2023/05/26 18:10:54;;;;;;;;;;;23.00;99.90;;;;;;20902870;28;19924;-75
2023/05/26 18:20:55;;;;;;;;;;;22.50;99.90;;;;;;20902756;28;20337;-75
2023/05/26 18:30:56;;;;;;;;;;;22.40;99.90;;;;;;20885127;28;19908;-75
2023/05/26 18:40:56;;;;;;;;;;;22.10;99.90;;;;;;20895624;28;20376;-76
2023/05/26 18:50:57;;;;;;;;;;;21.70;99.90;;;;;;20911516;28;19938;-76
2023/05/26 19:00:58;;;;;;;;;;;21.20;99.90;;;;;;20890447;28;19916;-77
2023/05/26 19:10:58;;;;;;;;;;;21.00;99.90;;;;;;20917409;28;20020;-75
2023/05/26 19:20:59;;;;;;;;;;;20.70;99.90;;;;;;20738223;28;19913;-75
2023/05/26 19:31:00;;;;;;;;;;;20.60;99.90;;;;;;20675651;28;19921;-74
2023/05/26 19:41:01;;;;;;;;;;;20.40;99.90;;;;;;20733709;28;20013;-75
2023/05/26 19:51:02;;;;;;;;;;;20.20;99.90;;;;;;20891097;28;19955;-75
2023/05/26 20:01:03;;;;;;;;;;;20.10;99.90;;;;;;20906059;28;20387;-75
2023/05/26 20:11:03;;;;;;;;;;;19.90;99.90;;;;;;20910215;28;20070;-75
2023/05/26 20:21:04;;;;;;;;;;;19.60;99.90;;;;;;20916761;28;19959;-75
2023/05/26 20:31:05;;;;;;;;;;;19.20;99.90;;;;;;20908966;28;19951;-75
2023/05/26 20:41:06;;;;;;;;;;;19.10;99.90;;;;;;20938451;28;19920;-74
2023/05/26 20:51:06;;;;;;;;;;;18.80;99.90;;;;;;20949598;28;19908;-74
2023/05/26 21:01:07;;;;;;;;;;;18.60;99.90;;;;;;20954561;28;20358;-75
2023/05/26 21:11:07;;;;;;;;;;;18.60;99.90;;;;;;20945176;28;19944;-75
2023/05/26 21:21:08;;;;;;;;;;;18.50;99.90;;;;;;20983940;28;19924;-74
2023/05/26 21:31:09;;;;;;;;;;;18.30;99.90;;;;;;20991630;28;19909;-75
2023/05/26 21:41:12;;;;;;;;;;;18.30;99.90;;;;;;20966169;28;20307;-74
2023/05/26 21:51:12;;;;;;;;;;;18.00;99.90;;;;;;20907754;28;19912;-75
2023/05/26 22:01:13;;;;;;;;;;;18.00;99.90;;;;;;20907335;28;20357;-74
2023/05/26 22:11:14;;;;;;;;;;;17.90;99.90;;;;;;20940045;28;20018;-74
2023/05/26 22:21:15;;;;;;;;;;;17.90;99.90;;;;;;20945991;28;20007;-74
2023/05/26 22:31:16;;;;;;;;;;;17.60;99.90;;;;;;20949721;28;19951;-74
2023/05/26 22:41:16;;;;;;;;;;;17.50;99.90;;;;;;20950100;28;20016;-75
2023/05/26 22:51:17;;;;;;;;;;;17.40;99.90;;;;;;20919847;28;19913;-75
2023/05/26 23:01:17;;;;;;;;;;;17.40;99.90;;;;;;20890947;28;19957;-75
2023/05/26 23:11:18;;;;;;;;;;;17.30;99.90;;;;;;20918006;28;20344;-75
2023/05/26 23:21:19;;;;;;;;;;;17.20;99.90;;;;;;20917449;28;20294;-75
2023/05/26 23:31:19;;;;;;;;;;;16.90;99.90;;;;;;20899410;28;20283;-75
2023/05/26 23:41:20;;;;;;;;;;;16.80;99.90;;;;;;20915023;28;19999;-75
2023/05/26 23:51:20;;;;;;;;;;;16.30;99.90;;;;;;20915671;28;19944;-74
